Stations météo

réclame
Mon MeteoGroup
Baza, Espagne (8424): Température de l'air & dewpoint: 15.10.2018 16:00:00 - 21.10.2018 16:00:00 (CEST)Baza, Espagne (8424): Vitesse du vent & gusts: 15.10.2018 16:00:00 - 21.10.2018 16:00:00 (CEST)Baza, Espagne (8424): Direction du vent: 15.10.2018 16:00:00 - 21.10.2018 16:00:00 (CEST)Baza, Espagne (8424): visibility: 15.10.2018 16:00:00 - 21.10.2018 16:00:00 (CEST)Baza, Espagne (8424): Ensoleillement: 15.10.2018 16:00:00 - 21.10.2018 16:00:00 (CEST)Baza, Espagne (8424): Quantités de précipitations: 15.10.2018 16:00:00 - 21.10.2018 16:00:00 (CEST)
Date & Time tt [°C] td [°C] ff [km/h] ff [knt] fx [km/h] fx [knt] dd vv [km] sd [min] rr [mm]
21.10.2018 16:00:00 22,0 14,4 16 9 27 14 SE 18 55 0,0
21.10.2018 15:00:00 21,8 14,4 16 9 29 16 SE 20 55 0,0
21.10.2018 14:00:00 21,1 14,2 15 8 25 13 SE 12 52 -
21.10.2018 13:00:00 18,9 14,3 4 2 8 4 S 15 9 0,0
21.10.2018 12:00:00 17,3 14,7 4 2 7 4 W 15 1 0,0
21.10.2018 11:00:00 15,7 14,9 3 2 7 4 SSW 16 0 0,0
21.10.2018 10:00:00 14,4 14,0 3 1 6 4 NNE 18 0 0,0
21.10.2018 09:00:00 13,6 13,3 2 1 8 4 NE 14 0 0,0
21.10.2018 08:00:00 13,4 13,1 5 3 9 5 NNE 17 0 -
21.10.2018 07:00:00 13,5 13,2 3 2 7 4 NNE 17 0 0,0
21.10.2018 06:00:00 13,1 12,7 7 4 9 5 SE 13 0 0,0
21.10.2018 05:00:00 13,4 13,0 2 1 5 3 E 14 0 0,0
21.10.2018 04:00:00 13,4 12,7 3 2 8 4 S 9 0 0,0
21.10.2018 03:00:00 13,8 13,2 6 3 8 4 W 12 0 0,0
21.10.2018 02:00:00 14,2 13,5 6 3 8 5 SSW 20 0 -
21.10.2018 01:00:00 14,3 13,4 5 3 10 6 S 20 0 0,0
21.10.2018 00:00:00 14,2 13,5 4 2 18 10 NW 17 0 0,4
20.10.2018 23:00:00 14,1 12,8 3 2 9 5 W 20 0 0,0
20.10.2018 22:00:00 13,8 12,2 3 2 16 9 S 20 0 0,0
20.10.2018 21:00:00 14,4 12,7 12 6 25 14 E 6 0 0,2
20.10.2018 20:00:00 14,8 12,8 8 5 21 11 ESE 20 0 -
20.10.2018 19:00:00 15,3 12,6 10 5 29 16 E 16 0 0,0
20.10.2018 18:00:00 15,6 13,5 13 7 37 20 E 20 0 0,2
20.10.2018 17:00:00 15,6 14,3 9 5 22 12 E 20 2 0,4
20.10.2018 16:00:00 14,7 13,9 13 7 25 13 SE 20 0 0,2
20.10.2018 15:00:00 14,3 13,6 8 4 26 14 ESE 12 0 1,8
20.10.2018 14:00:00 14,3 12,0 10 6 26 14 SE 20 0 -
20.10.2018 13:00:00 14,1 11,8 12 6 22 12 SE 20 0 0,0
20.10.2018 12:00:00 13,3 11,9 9 5 14 8 SE 20 0 0,0
20.10.2018 11:00:00 12,6 12,1 1 1 10 5 ESE 20 0 0,0
20.10.2018 10:00:00 11,5 11,2 3 2 12 7 W 15 0 0,0
20.10.2018 09:00:00 10,7 10,4 4 2 12 7 E 13 0 0,4
20.10.2018 08:00:00 10,0 9,4 7 4 12 6 SE 9 0 -
20.10.2018 07:00:00 9,1 8,1 6 3 11 6 SE 20 0 0,0
20.10.2018 06:00:00 9,3 8,4 4 2 11 6 NE 20 0 0,0
20.10.2018 05:00:00 8,4 7,7 6 3 9 5 ESE 20 0 0,0
20.10.2018 04:00:00 7,7 7,1 7 4 13 7 SE 20 0 0,0
20.10.2018 03:00:00 7,0 6,1 8 4 12 6 SSE 20 0 0,0
20.10.2018 02:00:00 7,1 6,1 3 1 10 6 ESE 20 0 -
20.10.2018 01:00:00 7,6 6,5 6 3 9 5 S 20 0 0,0
20.10.2018 00:00:00 8,5 7,1 7 4 10 6 SSE 20 0 0,0
19.10.2018 23:00:00 9,6 7,1 4 2 10 5 ENE 20 0 0,0
19.10.2018 22:00:00 10,5 7,1 5 3 12 6 SSE 20 0 0,0
19.10.2018 21:00:00 12,0 7,1 5 3 19 11 SE 20 0 0,0
19.10.2018 20:00:00 - - - - - - - - - -
19.10.2018 19:00:00 16,5 6,4 14 8 29 16 ESE 20 40 0,0
19.10.2018 18:00:00 18,7 6,2 17 9 31 17 ESE 20 11 0,0
19.10.2018 17:00:00 17,1 7,1 17 9 29 16 ESE 20 41 0,0
19.10.2018 16:00:00 17,7 6,8 15 8 27 15 ESE 20 54 0,0
19.10.2018 15:00:00 17,2 6,7 12 6 25 13 E 20 37 0,0
19.10.2018 14:00:00 17,5 6,7 10 5 24 13 ESE 20 49 -
19.10.2018 13:00:00 15,2 9,3 8 4 15 8 NNE 20 58 0,0
19.10.2018 12:00:00 13,3 8,9 8 5 14 8 E 20 60 0,0
19.10.2018 11:00:00 10,1 9,8 3 2 7 4 SSW 20 45 0,0
19.10.2018 10:00:00 8,1 8,0 3 1 10 5 N 20 0 0,0
19.10.2018 09:00:00 6,7 6,4 3 2 10 5 SE 11 0 0,2
19.10.2018 08:00:00 6,3 5,9 2 1 7 4 NW 4,8 0 -
19.10.2018 07:00:00 5,9 5,5 2 1 9 5 E 14 0 0,0
19.10.2018 06:00:00 6,3 5,9 5 3 9 5 S 17 0 0,0
19.10.2018 05:00:00 6,8 6,2 7 4 13 7 S 18 0 0,0
19.10.2018 04:00:00 7,5 6,8 5 3 6 4 SSW - 0 0,0
19.10.2018 03:00:00 9,0 8,4 4 2 9 5 NW 12 0 0,0
19.10.2018 02:00:00 9,9 8,9 3 2 11 6 W 19 0 -
19.10.2018 01:00:00 10,0 8,7 5 3 10 5 WSW 20 0 0,0
19.10.2018 00:00:00 10,1 8,7 7 4 10 6 WNW 20 0 0,0
18.10.2018 23:00:00 10,2 8,8 7 4 14 8 NW 20 0 0,0
18.10.2018 22:00:00 10,2 8,7 8 5 16 8 WNW 20 0 0,0
18.10.2018 21:00:00 10,1 9,3 8 4 16 8 WSW 20 0 0,2
18.10.2018 20:00:00 10,2 9,8 4 2 19 11 N 20 0 -
18.10.2018 19:00:00 10,2 9,3 10 5 26 14 WNW 16 0 0,6
18.10.2018 18:00:00 11,0 9,3 - - - - - 6 - -
18.10.2018 17:00:00 14,8 7,8 8 5 30 16 W 20 0 0,0
18.10.2018 16:00:00 17,2 8,7 16 9 31 17 ESE 20 19 0,0
18.10.2018 15:00:00 17,9 9,3 18 10 36 20 ESE 20 6 0,0
18.10.2018 14:00:00 17,5 9,2 20 11 38 21 ESE 20 0 -
18.10.2018 13:00:00 17,4 8,8 21 12 44 24 ESE 20 18 0,0
18.10.2018 12:00:00 15,7 9,3 18 10 30 16 SE 20 3 0,0
18.10.2018 11:00:00 13,8 10,4 2 1 11 6 S 20 26 0,0
18.10.2018 10:00:00 10,4 9,9 2 1 7 4 SE 20 0 0,0
18.10.2018 09:00:00 8,6 8,1 3 2 6 3 S 19 0 0,0
18.10.2018 08:00:00 8,0 7,4 3 2 5 3 ESE 17 0 -
18.10.2018 07:00:00 8,0 7,4 3 1 8 4 SSW 20 0 0,0
18.10.2018 06:00:00 8,0 7,1 0 0 8 4 N 16 0 0,0
18.10.2018 05:00:00 8,1 7,3 8 4 9 5 S 20 0 0,0
18.10.2018 04:00:00 8,2 7,0 6 3 7 4 SSE 18 0 0,0
18.10.2018 03:00:00 9,1 7,4 5 3 10 5 SSE 20 0 0,0
18.10.2018 02:00:00 9,6 7,4 5 3 10 5 E 20 0 -
18.10.2018 01:00:00 10,6 7,7 8 4 10 5 SE 20 0 0,0
18.10.2018 00:00:00 11,5 7,8 5 3 14 8 S 20 0 0,0
17.10.2018 23:00:00 13,0 7,7 8 5 14 8 SSE 20 0 0,0
17.10.2018 22:00:00 14,5 8,3 10 6 22 12 S 20 0 0,0
17.10.2018 21:00:00 14,4 7,4 6 4 13 7 ESE 20 0 0,0
17.10.2018 20:00:00 17,0 7,3 6 3 12 7 S 20 8 -
17.10.2018 19:00:00 20,8 5,6 7 4 21 11 WNW 20 47 0,0
17.10.2018 18:00:00 22,3 4,8 10 6 21 11 W 20 0 0,0
17.10.2018 17:00:00 22,3 6,1 9 5 18 10 WNW 20 43 0,0
17.10.2018 16:00:00 22,2 6,4 7 4 22 12 W 20 60 0,0
17.10.2018 15:00:00 21,0 8,0 8 4 16 9 NW 20 60 0,0
17.10.2018 14:00:00 19,7 8,4 8 4 15 8 NW 20 60 -
17.10.2018 13:00:00 16,4 11,1 7 4 11 6 N 20 60 0,0
17.10.2018 12:00:00 13,5 10,9 5 3 9 5 NW 20 60 0,0
17.10.2018 11:00:00 10,1 9,8 3 2 9 5 NNE 20 48 0,0
17.10.2018 10:00:00 8,6 8,3 6 3 10 5 NNW 15 0 0,0
17.10.2018 09:00:00 6,7 6,2 5 3 9 5 S 13 0 0,0
17.10.2018 08:00:00 7,2 6,7 4 2 5 3 W 12 0 -
17.10.2018 07:00:00 7,5 7,0 2 1 5 3 SSW 12 0 0,0
17.10.2018 06:00:00 8,0 7,6 4 2 6 3 S 13 0 0,0
17.10.2018 05:00:00 8,3 7,7 2 1 7 4 W 20 0 0,0
17.10.2018 04:00:00 8,4 7,8 5 3 8 4 SSE 18 0 0,0
17.10.2018 03:00:00 9,1 8,5 4 2 7 4 S 20 0 0,0
17.10.2018 02:00:00 9,8 9,0 5 3 7 4 SE 16 0 -
17.10.2018 01:00:00 10,1 9,2 4 2 9 5 SSE 20 0 0,0
17.10.2018 00:00:00 11,2 10,3 2 1 6 4 SSW 20 0 0,0
16.10.2018 23:00:00 11,0 9,9 3 2 9 5 SSE 20 0 0,0
16.10.2018 22:00:00 11,3 9,9 5 3 9 5 S 20 0 0,0
16.10.2018 21:00:00 12,6 10,5 8 4 11 6 SSE 20 0 0,0
16.10.2018 20:00:00 15,6 11,6 3 1 8 4 SW 20 0 -
16.10.2018 19:00:00 17,1 10,3 3 2 7 4 SW 20 0 0,0
16.10.2018 18:00:00 18,8 9,3 4 2 8 5 SSE 20 4 0,0
16.10.2018 17:00:00 17,9 9,3 3 1 14 8 E 20 2 0,0
16.10.2018 16:00:00 18,0 9,3 6 3 14 8 N 20 40 0,0
16.10.2018 15:00:00 18,7 9,7 6 3 16 9 SE 20 60 0,0
16.10.2018 14:00:00 15,7 11,1 10 5 17 9 SE 20 26 -
16.10.2018 13:00:00 15,2 10,4 2 1 8 5 E 20 25 0,0
16.10.2018 12:00:00 14,1 11,1 3 2 11 6 NNW 20 46 0,0
16.10.2018 11:00:00 12,7 10,9 5 3 9 5 N 20 18 0,0
16.10.2018 10:00:00 11,5 11,0 1 1 5 3 E 20 0 0,0
16.10.2018 09:00:00 11,0 10,5 2 1 5 3 NE 13 0 0,0
16.10.2018 08:00:00 10,9 10,4 4 2 8 5 N 7 0 -
16.10.2018 07:00:00 10,8 10,2 2 1 16 9 ESE 19 0 0,0
16.10.2018 06:00:00 10,6 10,0 9 5 16 9 SE 20 0 0,0
16.10.2018 05:00:00 10,5 9,9 0 0 4 2 N 14 0 0,0
16.10.2018 04:00:00 10,6 10,0 2 1 11 6 WNW 20 0 0,0
16.10.2018 03:00:00 10,4 9,8 8 4 10 5 W 20 0 0,2
16.10.2018 02:00:00 10,8 10,0 4 2 5 3 W 16 0 -
16.10.2018 01:00:00 10,9 9,9 1 1 6 3 SE 14 0 0,4
16.10.2018 00:00:00 11,3 9,9 3 1 6 4 E 18 0 1,0
15.10.2018 23:00:00 12,0 9,2 3 2 11 6 SSW 18 0 0,8
15.10.2018 22:00:00 12,6 6,4 3 2 11 6 N 20 0 0,0
15.10.2018 21:00:00 13,4 6,1 8 4 19 10 W 20 0 0,0
15.10.2018 20:00:00 14,4 5,9 12 6 21 11 W 20 0 -
15.10.2018 19:00:00 16,0 5,3 7 4 26 14 WNW 20 16 0,0
15.10.2018 18:00:00 17,6 4,8 16 9 31 17 NW 20 3 0,0
15.10.2018 17:00:00 19,2 2,1 16 9 29 16 NW 20 45 0,0
15.10.2018 16:00:00 18,8 2,1 13 7 22 12 NW 20 60 0,0

tt = Température de l'air
td = dewpoint
ff = Vitesse du vent
fx = gusts
dd = Direction du vent
vv = visibility
sd = Ensoleillement
rr = Quantités de précipitations

stations d'obs. à proximité